Time;durP1;ratioP1;P1;durP2;ratioP2;P2;SDS_P1;SDS_P2;PMS_P1;PMS_P2;Temp;Humidity;BMP_temperature;BMP_pressure;BME280_temperature;BME280_humidity;BME280_pressure;Samples;Min_cycle;Max_cycle;Signal;HPM_P1;HPM_P2
2024/03/03 00:01:07;;;;;;;31.73;21.60;;;;;;;8.78;100.00;153613.66;5046783;28;20640;-75
2024/03/03 00:03:34;;;;;;;33.63;20.83;;;;;;;8.79;100.00;153616.25;5047454;28;20446;-75
2024/03/03 00:06:00;;;;;;;32.73;21.67;;;;;;;8.81;100.00;153621.41;5056241;28;20463;-75
2024/03/03 00:08:27;;;;;;;32.87;20.43;;;;;;;8.89;100.00;153642.13;5044470;28;20494;-75
2024/03/03 00:10:54;;;;;;;31.90;20.97;;;;;;;8.84;100.00;153629.19;5043986;28;21065;-74
2024/03/03 00:13:22;;;;;;;30.83;19.63;;;;;;;8.80;100.00;153618.81;5042631;28;21059;-75
2024/03/03 00:15:49;;;;;;;35.97;20.80;;;;;;;8.82;100.00;153623.97;5046409;28;20945;-75
2024/03/03 00:18:15;;;;;;;29.17;21.43;;;;;;;8.78;100.00;153614.97;5040695;28;20447;-75
2024/03/03 00:20:41;;;;;;;29.33;18.40;;;;;;;8.75;100.00;153605.91;5034071;28;20440;-75
2024/03/03 00:23:08;;;;;;;30.80;21.07;;;;;;;8.75;100.00;153607.19;5036115;28;20465;-75
2024/03/03 00:25:35;;;;;;;34.10;21.73;;;;;;;8.76;100.00;153608.50;5039214;28;20456;-75
2024/03/03 00:28:01;;;;;;;25.93;18.50;;;;;;;8.76;100.00;153608.50;5046504;28;20454;-75
2024/03/03 00:30:29;;;;;;;29.60;20.53;;;;;;;8.75;100.00;153605.91;5042089;28;20458;-74
2024/03/03 00:32:55;;;;;;;29.33;20.53;;;;;;;8.75;100.00;153605.91;5035576;28;20892;-75
2024/03/03 00:35:22;;;;;;;32.97;21.70;;;;;;;8.72;100.00;153599.44;5036749;28;20454;-75
2024/03/03 00:37:48;;;;;;;28.80;20.30;;;;;;;8.72;100.00;153598.13;5046293;28;20450;-75
2024/03/03 00:40:15;;;;;;;31.50;21.17;;;;;;;8.70;100.00;153592.97;5041202;28;20435;-75
2024/03/03 00:42:42;;;;;;;31.60;20.23;;;;;;;8.74;100.00;153603.28;5037921;28;20455;-75
2024/03/03 00:45:11;;;;;;;28.27;20.37;;;;;;;8.73;100.00;153602.03;5044211;28;20450;-75
2024/03/03 00:47:39;;;;;;;32.23;20.43;;;;;;;8.72;100.00;153598.13;5045657;28;20455;-75
2024/03/03 00:50:06;;;;;;;29.47;20.10;;;;;;;8.74;100.00;153603.28;5045266;28;20430;-75
2024/03/03 00:52:33;;;;;;;31.03;19.43;;;;;;;8.74;100.00;153603.28;5039403;28;20877;-75
2024/03/03 00:54:59;;;;;;;30.77;20.60;;;;;;;8.73;100.00;153600.72;5044516;28;20897;-75
2024/03/03 00:57:26;;;;;;;29.10;19.57;;;;;;;8.70;100.00;153594.28;5043818;28;20459;-75
2024/03/03 00:59:53;;;;;;;31.90;21.00;;;;;;;8.67;100.00;153585.22;5040935;28;20450;-75
2024/03/03 01:02:19;;;;;;;30.07;19.87;;;;;;;8.68;100.00;153587.81;5045904;28;20569;-75
2024/03/03 01:04:50;;;;;;;33.63;22.53;;;;;;;8.67;100.00;153586.50;5044512;28;20478;-75
2024/03/03 01:07:16;;;;;;;30.70;21.20;;;;;;;8.67;100.00;153585.22;5044600;28;20832;-75
2024/03/03 01:09:43;;;;;;;34.00;21.27;;;;;;;8.67;100.00;153586.50;5045159;28;21034;-75
2024/03/03 01:12:09;;;;;;;31.13;21.60;;;;;;;8.66;100.00;153582.66;5043753;28;20470;-75
2024/03/03 01:14:36;;;;;;;35.93;20.70;;;;;;;8.66;100.00;153582.66;5038085;28;20478;-75
2024/03/03 01:17:02;;;;;;;34.90;21.80;;;;;;;8.62;100.00;153573.59;5048769;28;21010;-75
2024/03/03 01:19:29;;;;;;;27.27;18.53;;;;;;;8.53;100.00;153551.59;5043727;28;20968;-75
2024/03/03 01:21:57;;;;;;;28.93;20.60;;;;;;;8.56;100.00;153559.38;5049208;28;20830;-75
2024/03/03 01:24:23;;;;;;;27.63;19.87;;;;;;;8.58;100.00;153564.53;5045015;28;21004;-75
2024/03/03 01:26:50;;;;;;;31.37;20.20;;;;;;;8.57;100.00;153561.97;5045220;28;20806;-75
2024/03/03 01:29:17;;;;;;;31.30;22.37;;;;;;;8.57;100.00;153560.66;5031815;28;21188;-75
2024/03/03 01:31:44;;;;;;;27.47;19.07;;;;;;;8.55;100.00;153556.75;5048110;28;20539;-75
2024/03/03 01:34:11;;;;;;;32.27;21.13;;;;;;;8.51;100.00;153545.13;5047018;28;20471;-75
2024/03/03 01:36:38;;;;;;;29.40;20.50;;;;;;;8.51;100.00;153546.44;5048078;28;20445;-75
2024/03/03 01:39:06;;;;;;;30.20;20.67;;;;;;;8.46;100.00;153533.53;5041830;28;21404;-75
2024/03/03 01:41:32;;;;;;;28.37;19.50;;;;;;;8.44;100.00;153528.34;5051352;28;20458;-75
2024/03/03 01:43:59;;;;;;;28.60;18.77;;;;;;;8.40;100.00;153518.00;5051878;28;20437;-75
2024/03/03 01:46:26;;;;;;;31.03;18.30;;;;;;;8.31;100.00;153494.72;5026265;28;20442;-75
2024/03/03 01:48:52;;;;;;;28.40;18.87;;;;;;;8.23;100.00;153474.03;5031278;28;20457;-75
2024/03/03 01:51:19;;;;;;;28.17;19.27;;;;;;;8.17;100.00;153457.19;5048349;28;20454;-75
2024/03/03 01:53:48;;;;;;;30.53;19.90;;;;;;;8.11;100.00;153441.69;5048376;28;20470;-75
2024/03/03 01:56:16;;;;;;;28.20;19.77;;;;;;;8.09;100.00;153437.81;5061754;28;20458;-75
2024/03/03 01:58:42;;;;;;;32.67;21.93;;;;;;;8.10;100.00;153439.13;5046807;28;20453;-74
2024/03/03 02:01:09;;;;;;;33.73;22.67;;;;;;;8.14;100.00;153450.75;5044414;28;20477;-75
2024/03/03 02:03:36;;;;;;;35.10;21.63;;;;;;;8.17;100.00;153458.50;5048471;28;20574;-75
2024/03/03 02:06:03;;;;;;;32.77;21.97;;;;;;;8.19;100.00;153462.38;5041409;28;20455;-75
2024/03/03 02:08:31;;;;;;;29.20;21.00;;;;;;;8.18;100.00;153459.81;5029037;28;20604;-75
2024/03/03 02:10:58;;;;;;;25.47;18.37;;;;;;;8.18;100.00;153461.06;5046525;28;20443;-75
2024/03/03 02:13:26;;;;;;;27.87;18.77;;;;;;;8.18;100.00;153461.06;5030940;28;20509;-74
2024/03/03 02:15:53;;;;;;;31.97;22.63;;;;;;;8.17;100.00;153458.50;5023374;28;20506;-75
2024/03/03 02:18:19;;;;;;;29.23;19.93;;;;;;;8.10;100.00;153440.38;5014914;28;20451;-75
2024/03/03 02:20:46;;;;;;;33.70;21.87;;;;;;;8.05;100.00;153426.22;5041094;28;20443;-75
2024/03/03 02:23:14;;;;;;;32.97;20.90;;;;;;;7.97;100.00;153406.78;5049167;28;20808;-75
2024/03/03 02:25:40;;;;;;;37.10;23.17;;;;;;;7.92;100.00;153393.88;5040046;28;20442;-75
2024/03/03 02:28:07;;;;;;;29.27;19.80;;;;;;;7.88;100.00;153383.56;5029256;28;20467;-75
2024/03/03 02:30:34;;;;;;;36.27;22.63;;;;;;;7.84;100.00;153373.19;5047371;28;21067;-76
2024/03/03 02:33:00;;;;;;;37.20;24.30;;;;;;;7.86;100.00;153378.41;5047429;28;20485;-76
2024/03/03 02:35:27;;;;;;;36.03;25.53;;;;;;;7.83;100.00;153370.66;5039651;28;20446;-76
2024/03/03 02:37:53;;;;;;;35.77;25.37;;;;;;;7.87;100.00;153382.25;5030134;28;20446;-75
2024/03/03 02:40:21;;;;;;;42.10;27.20;;;;;;;7.94;100.00;153399.09;5047428;28;20431;-76
2024/03/03 02:42:48;;;;;;;35.20;23.17;;;;;;;7.93;100.00;153397.78;5044969;28;20459;-76
2024/03/03 02:45:14;;;;;;;38.70;26.00;;;;;;;7.92;100.00;153395.19;5046836;28;20494;-76
2024/03/03 02:47:42;;;;;;;40.23;25.63;;;;;;;7.81;100.00;153365.50;5029333;28;20454;-73
2024/03/03 02:50:09;;;;;;;42.60;26.37;;;;;;;7.75;100.00;153349.97;5022934;28;20787;-75
2024/03/03 02:52:36;;;;;;;40.70;27.07;;;;;;;7.72;100.00;153342.22;5044309;28;20458;-75
2024/03/03 02:55:02;;;;;;;43.83;27.40;;;;;;;7.70;100.00;153338.38;5045991;28;20471;-75
2024/03/03 02:57:30;;;;;;;39.27;25.20;;;;;;;7.69;100.00;153334.47;5048518;28;20466;-75
2024/03/03 02:59:57;;;;;;;36.10;25.27;;;;;;;7.68;100.00;153331.84;5045828;28;20443;-76
2024/03/03 03:02:23;;;;;;;36.87;24.53;;;;;;;7.70;100.00;153337.06;5045339;28;20859;-75
2024/03/03 03:04:51;;;;;;;33.40;22.93;;;;;;;7.62;100.00;153317.69;5047105;28;20427;-76
2024/03/03 03:07:18;;;;;;;36.17;22.47;;;;;;;7.58;100.00;153306.03;5042913;28;20848;-76
2024/03/03 03:09:45;;;;;;;37.73;25.37;;;;;;;7.53;100.00;153294.44;5042278;28;20576;-75
2024/03/03 03:12:12;;;;;;;37.03;24.80;;;;;;;7.50;100.00;153286.66;5046592;28;20439;-75
2024/03/03 03:14:40;;;;;;;35.07;22.77;;;;;;;7.46;100.00;153275.06;5045186;28;20458;-75
2024/03/03 03:17:07;;;;;;;40.33;22.80;;;;;;;7.44;100.00;153269.91;5038789;28;20467;-75
2024/03/03 03:19:34;;;;;;;40.30;25.43;;;;;;;7.44;100.00;153269.91;5046711;28;20473;-75
2024/03/03 03:22:00;;;;;;;35.20;24.20;;;;;;;7.44;100.00;153269.91;5047803;28;20439;-75
2024/03/03 03:24:29;;;;;;;30.57;22.27;;;;;;;7.42;100.00;153264.69;5043103;28;20447;-75
2024/03/03 03:26:56;;;;;;;29.67;20.90;;;;;;;7.40;100.00;153259.53;5040807;28;20855;-75
2024/03/03 03:29:22;;;;;;;35.43;21.87;;;;;;;7.35;100.00;153247.94;5062368;28;20442;-75
2024/03/03 03:31:50;;;;;;;30.93;21.83;;;;;;;7.33;100.00;153244.03;5047269;28;20455;-75
2024/03/03 03:34:17;;;;;;;31.43;21.80;;;;;;;7.26;100.00;153225.97;5046263;28;20475;-75
2024/03/03 03:36:43;;;;;;;32.80;23.23;;;;;;;7.26;100.00;153225.97;5043645;28;20787;-75
2024/03/03 03:39:12;;;;;;;30.10;21.13;;;;;;;7.21;100.00;153211.78;5047481;28;20447;-75
2024/03/03 03:41:43;;;;;;;34.30;20.93;;;;;;;7.16;100.00;153198.84;5046864;28;20455;-75
2024/03/03 03:44:10;;;;;;;33.13;22.43;;;;;;;7.13;100.00;153192.41;5044512;28;20458;-75
2024/03/03 03:46:37;;;;;;;32.87;20.87;;;;;;;7.12;100.00;153188.56;5044639;28;20553;-75
2024/03/03 03:49:05;;;;;;;30.87;22.10;;;;;;;7.12;100.00;153189.81;5049154;28;20484;-75
2024/03/03 03:51:32;;;;;;;32.50;22.50;;;;;;;7.10;100.00;153184.66;5031825;28;20450;-76
2024/03/03 03:53:58;;;;;;;36.90;23.27;;;;;;;7.10;100.00;153184.66;5044548;28;20776;-75
2024/03/03 03:56:25;;;;;;;34.67;21.60;;;;;;;7.07;100.00;153176.91;5043457;28;20851;-75
2024/03/03 03:58:51;;;;;;;34.70;22.80;;;;;;;7.07;100.00;153175.66;5052045;28;20525;-75
2024/03/03 04:01:19;;;;;;;31.67;21.80;;;;;;;7.03;100.00;153165.28;5042464;28;20451;-75
2024/03/03 04:03:46;;;;;;;31.10;22.07;;;;;;;6.99;100.00;153155.00;5043851;28;20482;-75
2024/03/03 04:06:14;;;;;;;33.63;22.43;;;;;;;6.93;100.00;153140.78;5045572;28;20858;-75
2024/03/03 04:08:41;;;;;;;32.03;21.60;;;;;;;6.88;100.00;153127.88;5041378;28;20463;-75
2024/03/03 04:11:08;;;;;;;29.00;21.13;;;;;;;6.84;100.00;153117.53;5046836;28;20500;-75
2024/03/03 04:13:35;;;;;;;31.43;21.73;;;;;;;6.81;100.00;153109.78;5043831;28;20518;-75
2024/03/03 04:16:01;;;;;;;32.30;22.70;;;;;;;6.77;100.00;153099.47;5045324;28;20905;-75
2024/03/03 04:18:28;;;;;;;34.20;23.00;;;;;;;6.75;100.00;153094.31;5033579;28;20463;-75
2024/03/03 04:20:54;;;;;;;40.40;24.10;;;;;;;6.70;100.00;153082.66;5044524;28;20542;-75
2024/03/03 04:23:22;;;;;;;38.50;21.50;;;;;;;6.72;100.00;153086.56;5043285;28;20831;-75
2024/03/03 04:25:49;;;;;;;32.70;21.10;;;;;;;6.72;100.00;153086.56;5045301;28;20431;-75
2024/03/03 04:28:15;;;;;;;35.87;23.63;;;;;;;6.75;100.00;153095.56;5026644;28;20833;-75
2024/03/03 04:30:42;;;;;;;31.73;22.10;;;;;;;6.77;100.00;153098.19;5042001;28;20953;-75
2024/03/03 04:33:08;;;;;;;32.00;21.13;;;;;;;6.80;100.00;153105.91;5046089;28;20455;-75
2024/03/03 04:35:35;;;;;;;29.07;20.67;;;;;;;6.81;100.00;153108.47;5041296;28;20969;-75
2024/03/03 04:38:02;;;;;;;31.00;21.37;;;;;;;6.79;100.00;153103.31;5044723;28;20857;-75
2024/03/03 04:40:30;;;;;;;34.53;21.57;;;;;;;6.75;100.00;153095.56;5043701;28;20817;-75
2024/03/03 04:42:56;;;;;;;34.50;20.70;;;;;;;6.77;100.00;153099.47;5044777;28;20447;-75
2024/03/03 04:45:23;;;;;;;33.07;22.57;;;;;;;6.77;100.00;153099.47;5041537;28;20466;-75
2024/03/03 04:47:50;;;;;;;33.57;22.73;;;;;;;6.79;100.00;153103.31;5044987;28;20467;-75
2024/03/03 04:50:18;;;;;;;28.50;20.67;;;;;;;6.81;100.00;153108.47;5047972;28;20435;-75
2024/03/03 04:52:45;;;;;;;37.30;21.87;;;;;;;6.79;100.00;153104.63;5050844;28;20451;-75
2024/03/03 04:55:12;;;;;;;29.30;19.97;;;;;;;6.81;100.00;153109.78;5036927;28;20479;-75
2024/03/03 04:57:40;;;;;;;32.43;21.73;;;;;;;6.81;100.00;153108.47;5045576;28;20717;-75
2024/03/03 05:00:09;;;;;;;34.87;21.03;;;;;;;6.79;100.00;153104.63;5047655;28;20857;-75
2024/03/03 05:02:35;;;;;;;32.13;20.67;;;;;;;6.79;100.00;153104.63;5049176;28;20910;-75
2024/03/03 05:05:02;;;;;;;28.27;20.07;;;;;;;6.78;100.00;153102.03;5045359;28;20489;-75
2024/03/03 05:07:30;;;;;;;35.33;20.60;;;;;;;6.76;100.00;153096.88;5056709;28;20477;-75
2024/03/03 05:09:56;;;;;;;31.83;21.27;;;;;;;6.74;100.00;153093.03;5049451;28;20463;-75
2024/03/03 05:12:23;;;;;;;29.23;20.30;;;;;;;6.70;100.00;153082.66;5049339;28;20453;-75
2024/03/03 05:14:51;;;;;;;34.43;20.30;;;;;;;6.73;100.00;153089.13;5048492;28;20565;-75
2024/03/03 05:17:19;;;;;;;36.93;23.10;;;;;;;6.79;100.00;153104.63;5051134;28;20469;-75
2024/03/03 05:19:45;;;;;;;32.43;20.40;;;;;;;6.82;100.00;153111.06;5049051;28;20450;-75
2024/03/03 05:22:12;;;;;;;30.07;20.30;;;;;;;6.84;100.00;153116.22;5049439;28;20442;-75
2024/03/03 05:24:38;;;;;;;31.60;21.07;;;;;;;6.81;100.00;153109.78;5047702;28;20459;-75
2024/03/03 05:27:05;;;;;;;37.17;23.20;;;;;;;6.77;100.00;153099.47;5049656;28;20443;-75
2024/03/03 05:29:32;;;;;;;34.37;21.83;;;;;;;6.75;100.00;153094.31;5067048;28;20478;-75
2024/03/03 05:32:00;;;;;;;37.60;22.80;;;;;;;6.66;100.00;153071.06;5048118;28;20543;-75
2024/03/03 05:34:26;;;;;;;35.03;22.33;;;;;;;6.65;100.00;153068.47;5051049;28;20712;-75
2024/03/03 05:36:53;;;;;;;34.30;22.90;;;;;;;6.62;100.00;153060.72;5048553;28;20455;-75
2024/03/03 05:39:21;;;;;;;31.17;20.50;;;;;;;6.61;100.00;153059.47;5044402;28;20481;-75
2024/03/03 05:41:48;;;;;;;34.53;21.37;;;;;;;6.56;100.00;153046.56;5049747;28;20447;-75
2024/03/03 05:44:15;;;;;;;32.40;20.90;;;;;;;6.54;100.00;153040.13;5050161;28;20435;-75
2024/03/03 05:46:42;;;;;;;33.50;21.07;;;;;;;6.52;100.00;153034.91;5047371;28;20878;-75
2024/03/03 05:49:10;;;;;;;35.73;22.00;;;;;;;6.52;100.00;153036.22;5048800;28;20504;-75
2024/03/03 05:51:36;;;;;;;29.77;20.30;;;;;;;6.54;100.00;153041.38;5050326;28;20445;-75
2024/03/03 05:54:03;;;;;;;30.27;19.87;;;;;;;6.55;100.00;153042.66;5050203;28;20918;-75
2024/03/03 05:56:30;;;;;;;33.10;21.17;;;;;;;6.55;100.00;153043.97;5050649;28;20451;-75
2024/03/03 05:58:56;;;;;;;29.00;19.87;;;;;;;6.56;100.00;153045.25;5047196;28;20470;-75
2024/03/03 06:01:23;;;;;;;33.13;19.70;;;;;;;6.58;100.00;153050.41;5041206;28;20474;-75
2024/03/03 06:03:49;;;;;;;33.40;20.90;;;;;;;6.55;100.00;153042.66;5050687;28;20449;-76
2024/03/03 06:06:17;;;;;;;31.37;19.30;;;;;;;6.50;100.00;153031.06;5046364;28;20915;-76
2024/03/03 06:08:45;;;;;;;30.77;18.77;;;;;;;6.45;100.00;153016.88;5041221;28;20458;-76
2024/03/03 06:11:12;;;;;;;32.83;19.83;;;;;;;6.42;100.00;153009.13;5042255;28;20537;-75
2024/03/03 06:13:38;;;;;;;28.93;20.27;;;;;;;6.41;100.00;153006.53;5039051;28;20466;-75
2024/03/03 06:16:05;;;;;;;31.10;19.10;;;;;;;6.40;100.00;153005.28;5039241;28;20476;-75
2024/03/03 06:18:32;;;;;;;40.00;22.07;;;;;;;6.38;100.00;152998.81;5038584;28;20467;-75
2024/03/03 06:20:58;;;;;;;30.10;19.23;;;;;;;6.37;100.00;152997.53;5053707;28;20461;-75
2024/03/03 06:23:26;;;;;;;34.03;20.73;;;;;;;6.37;100.00;152996.22;5037231;28;20948;-75
2024/03/03 06:25:53;;;;;;;31.93;20.77;;;;;;;6.38;100.00;152998.81;5037750;28;20457;-75
2024/03/03 06:28:19;;;;;;;33.60;21.33;;;;;;;6.43;100.00;153011.72;5040483;28;20455;-75
2024/03/03 06:30:47;;;;;;;34.30;21.20;;;;;;;6.45;100.00;153016.88;5041598;28;20462;-75
2024/03/03 06:33:13;;;;;;;33.40;20.50;;;;;;;6.47;100.00;153023.31;5040204;28;20460;-74
2024/03/03 06:35:40;;;;;;;28.47;19.07;;;;;;;6.54;100.00;153041.38;5041657;28;20925;-74
2024/03/03 06:38:06;;;;;;;32.17;22.10;;;;;;;6.64;100.00;153065.91;5037150;28;20451;-75
2024/03/03 06:40:34;;;;;;;33.40;22.03;;;;;;;6.77;100.00;153099.47;5038479;28;21019;-74
2024/03/03 06:43:00;;;;;;;34.57;20.23;;;;;;;6.88;100.00;153127.88;5041236;28;20455;-74
2024/03/03 06:45:27;;;;;;;35.20;22.67;;;;;;;7.00;100.00;153158.84;5042383;28;20462;-75
2024/03/03 06:47:54;;;;;;;32.60;20.93;;;;;;;7.11;100.00;153187.25;5042284;28;20547;-75
2024/03/03 06:50:20;;;;;;;30.97;19.83;;;;;;;7.26;100.00;153225.97;5042086;28;20918;-75
2024/03/03 06:52:47;;;;;;;29.67;19.10;;;;;;;7.45;100.00;153273.75;5035689;28;20456;-75
2024/03/03 06:55:14;;;;;;;29.23;19.10;;;;;;;7.61;100.00;153313.78;5039440;28;20485;-75
2024/03/03 06:57:41;;;;;;;27.87;18.17;;;;;;;7.68;100.00;153331.84;5038500;28;20858;-75
2024/03/03 07:00:09;;;;;;;24.03;16.83;;;;;;;7.89;100.00;153386.13;5038467;28;20471;-75
2024/03/03 07:05:22;;;;;;;27.17;18.97;;;;;;;8.30;100.00;153492.16;5013713;28;20589;-75
2024/03/03 07:07:48;;;;;;;22.47;17.03;;;;;;;8.44;100.00;153527.06;5038476;28;20494;-75
2024/03/03 07:10:15;;;;;;;23.80;15.50;;;;;;;8.65;100.00;153580.03;5042993;28;20827;-75
2024/03/03 07:12:43;;;;;;;21.27;14.80;;;;;;;8.86;99.24;153635.66;5052588;28;20498;-75
2024/03/03 07:15:10;;;;;;;23.10;17.10;;;;;;;8.96;95.43;153660.19;5037547;28;20553;-75
2024/03/03 07:17:36;;;;;;;25.10;16.00;;;;;;;9.10;95.20;153696.41;5040352;28;20825;-75
2024/03/03 07:20:05;;;;;;;23.23;16.20;;;;;;;9.03;93.71;153678.28;5036863;28;20459;-75
2024/03/03 07:22:34;;;;;;;23.00;15.53;;;;;;;9.01;94.26;153673.13;5039366;28;20620;-75
2024/03/03 07:25:02;;;;;;;18.73;14.70;;;;;;;9.07;93.82;153688.66;5037594;28;20942;-75
2024/03/03 07:27:29;;;;;;;24.77;16.27;;;;;;;9.23;94.14;153730.03;5036458;28;20857;-75
2024/03/03 07:29:57;;;;;;;24.00;15.97;;;;;;;9.44;94.01;153784.38;5034824;28;20513;-74
2024/03/03 07:32:23;;;;;;;20.70;14.47;;;;;;;9.64;93.15;153836.09;5036669;28;20447;-75
2024/03/03 07:34:50;;;;;;;18.03;14.83;;;;;;;9.87;92.65;153893.06;5037800;28;20486;-75
2024/03/03 07:37:17;;;;;;;20.13;13.97;;;;;;;9.92;89.44;153907.28;5038653;28;20627;-75
2024/03/03 07:39:43;;;;;;;21.43;14.57;;;;;;;10.00;89.67;153928.00;5036504;28;20470;-75
2024/03/03 07:42:10;;;;;;;21.77;15.20;;;;;;;9.94;88.22;153911.16;5038103;28;20451;-75
2024/03/03 07:44:37;;;;;;;22.80;15.00;;;;;;;9.82;87.99;153882.69;5038530;28;20498;-75
2024/03/03 07:47:05;;;;;;;21.60;13.63;;;;;;;9.72;88.35;153855.50;5040213;28;20447;-75
2024/03/03 07:49:31;;;;;;;18.63;13.20;;;;;;;9.71;89.37;153854.25;5034123;28;20932;-75
2024/03/03 07:51:58;;;;;;;17.07;13.07;;;;;;;9.70;88.73;153851.63;5053435;28;20946;-75
2024/03/03 07:54:25;;;;;;;18.00;13.53;;;;;;;9.61;88.45;153827.06;5036552;28;20982;-75
2024/03/03 07:56:51;;;;;;;20.77;14.57;;;;;;;9.60;89.02;153824.47;5040773;28;20477;-75
2024/03/03 07:59:18;;;;;;;20.00;14.03;;;;;;;9.60;89.26;153825.78;5035753;28;20455;-75
2024/03/03 08:01:44;;;;;;;16.90;13.13;;;;;;;9.59;89.44;153823.16;5038581;28;20447;-75
2024/03/03 08:04:13;;;;;;;20.07;14.80;;;;;;;9.52;89.48;153805.06;5036952;28;20537;-75
2024/03/03 08:06:39;;;;;;;17.67;12.60;;;;;;;9.44;90.04;153783.06;5037178;28;20479;-75
2024/03/03 08:09:06;;;;;;;23.00;15.97;;;;;;;9.37;91.14;153766.22;5035541;28;20447;-75
2024/03/03 08:11:33;;;;;;;22.20;15.67;;;;;;;9.35;92.62;153759.75;5053163;28;20467;-75
2024/03/03 08:13:59;;;;;;;22.13;14.67;;;;;;;9.28;92.70;153742.97;5051970;28;20557;-75
2024/03/03 08:16:26;;;;;;;21.43;16.40;;;;;;;9.23;92.62;153728.75;5037607;28;20478;-75
2024/03/03 08:18:53;;;;;;;16.37;12.87;;;;;;;9.28;92.88;153741.69;5038861;28;20458;-75
2024/03/03 08:21:21;;;;;;;28.87;21.50;;;;;;;9.26;92.20;153736.50;5040126;28;20450;-75
2024/03/03 08:23:47;;;;;;;20.30;14.97;;;;;;;9.31;91.50;153749.44;5047440;28;20454;-75
2024/03/03 08:26:14;;;;;;;18.83;14.30;;;;;;;9.34;91.22;153757.22;5038952;28;21039;-75
2024/03/03 08:28:40;;;;;;;20.93;14.50;;;;;;;9.33;90.89;153755.91;5036739;28;20496;-75
2024/03/03 08:31:07;;;;;;;25.40;16.90;;;;;;;9.38;91.01;153768.84;5051446;28;21046;-75
2024/03/03 08:33:33;;;;;;;18.57;14.13;;;;;;;9.52;91.68;153803.78;5035536;28;20503;-75
2024/03/03 08:36:00;;;;;;;17.67;12.73;;;;;;;9.60;90.76;153825.78;5038439;28;21024;-75
2024/03/03 08:38:29;;;;;;;15.23;12.80;;;;;;;9.67;89.98;153842.56;5052992;28;20448;-75
2024/03/03 08:40:56;;;;;;;20.43;15.10;;;;;;;9.74;90.21;153860.72;5036035;28;20853;-74
2024/03/03 08:43:23;;;;;;;21.17;15.40;;;;;;;9.79;90.35;153874.91;5037468;28;20463;-75
2024/03/03 08:45:49;;;;;;;18.53;13.30;;;;;;;9.90;90.48;153902.06;5035832;28;20447;-75
2024/03/03 08:48:16;;;;;;;20.00;13.17;;;;;;;9.97;88.78;153920.22;5036359;28;20457;-75
2024/03/03 08:50:42;;;;;;;24.27;17.27;;;;;;;10.00;87.58;153926.69;5036626;28;20450;-75
2024/03/03 08:53:09;;;;;;;21.00;14.13;;;;;;;10.09;88.16;153949.97;5037797;28;20459;-75
2024/03/03 08:55:37;;;;;;;48.07;32.73;;;;;;;10.10;87.04;153952.56;5034727;28;21002;-75
2024/03/03 08:58:03;;;;;;;16.10;12.87;;;;;;;10.13;86.36;153961.69;5050748;28;20454;-75
2024/03/03 09:00:30;;;;;;;18.33;13.57;;;;;;;10.14;85.50;153964.25;5050803;28;20455;-75
2024/03/03 09:02:56;;;;;;;15.67;13.03;;;;;;;10.14;85.03;153963.00;5034462;28;20451;-76
2024/03/03 09:05:23;;;;;;;27.50;19.27;;;;;;;10.17;84.91;153970.72;5034488;28;20462;-76
2024/03/03 09:07:49;;;;;;;20.00;14.63;;;;;;;10.20;84.93;153978.50;5050384;28;20471;-77
2024/03/03 09:10:16;;;;;;;18.37;13.03;;;;;;;10.20;86.05;153979.81;5035476;28;20451;-76
2024/03/03 09:12:44;;;;;;;18.17;13.50;;;;;;;10.21;86.23;153981.09;5036457;28;20985;-76
2024/03/03 09:15:10;;;;;;;19.37;13.77;;;;;;;10.21;87.07;153981.09;5035643;28;21040;-76
2024/03/03 09:17:37;;;;;;;24.67;17.27;;;;;;;10.24;87.42;153988.88;5033155;28;20454;-76
2024/03/03 09:20:05;;;;;;;17.20;13.97;;;;;;;10.27;88.12;153996.66;5036244;28;20457;-76
2024/03/03 09:22:32;;;;;;;22.13;14.60;;;;;;;10.24;87.99;153990.19;5034937;28;20558;-76
2024/03/03 09:24:59;;;;;;;19.87;15.20;;;;;;;10.25;88.21;153992.75;5037166;28;20459;-76
2024/03/03 09:27:25;;;;;;;19.00;14.07;;;;;;;10.35;88.33;154017.38;5038173;28;20454;-76
2024/03/03 09:29:53;;;;;;;18.23;14.27;;;;;;;10.43;88.02;154036.78;5036745;28;20466;-76
2024/03/03 09:32:20;;;;;;;18.40;13.70;;;;;;;10.48;87.98;154051.03;5031974;28;20455;-76
2024/03/03 09:34:46;;;;;;;21.90;14.60;;;;;;;10.56;87.22;154071.75;5037293;28;20459;-76
2024/03/03 09:37:13;;;;;;;14.10;11.70;;;;;;;10.66;86.96;154097.63;5055057;28;20470;-76
2024/03/03 09:39:40;;;;;;;19.77;14.67;;;;;;;10.75;85.19;154120.91;5042019;28;20459;-76
2024/03/03 09:42:07;;;;;;;13.50;10.60;;;;;;;10.81;84.28;154136.47;5054137;28;20504;-76
2024/03/03 09:44:39;;;;;;;16.20;13.00;;;;;;;10.89;83.52;154155.88;5039323;28;20949;-76
2024/03/03 09:47:08;;;;;;;14.07;10.30;;;;;;;10.95;83.21;154172.75;5055856;28;20962;-76
2024/03/03 09:49:35;;;;;;;14.30;11.67;;;;;;;10.97;81.99;154177.91;5039956;28;20438;-76
2024/03/03 09:52:04;;;;;;;17.20;12.93;;;;;;;11.01;81.63;154188.25;5057011;28;20459;-76
2024/03/03 09:54:32;;;;;;;14.13;10.53;;;;;;;11.10;81.59;154208.97;5038136;28;20459;-76
2024/03/03 09:56:59;;;;;;;13.40;10.20;;;;;;;11.15;81.48;154221.94;5041775;28;20479;-76
2024/03/03 09:59:26;;;;;;;16.53;12.70;;;;;;;11.27;82.03;154253.03;5041154;28;20450;-77
2024/03/03 10:01:55;;;;;;;16.07;11.00;;;;;;;11.39;81.96;154284.13;5040317;28;20450;-77
2024/03/03 10:04:23;;;;;;;15.87;12.00;;;;;;;11.47;81.48;154306.16;5038471;28;20817;-74
2024/03/03 10:06:52;;;;;;;14.57;10.87;;;;;;;11.53;79.77;154320.41;5039946;28;20483;-75
2024/03/03 10:09:19;;;;;;;13.97;10.23;;;;;;;11.56;80.53;154329.50;5040263;28;20462;-77
2024/03/03 10:11:47;;;;;;;18.10;10.80;;;;;;;11.59;79.78;154335.97;5039961;28;20458;-76
2024/03/03 10:14:13;;;;;;;12.93;9.30;;;;;;;11.62;78.11;154345.00;5037603;28;20459;-75
2024/03/03 10:16:40;;;;;;;13.30;9.50;;;;;;;11.66;77.76;154352.78;5039907;28;20472;-76
2024/03/03 10:19:07;;;;;;;11.57;9.67;;;;;;;11.68;77.62;154359.28;5053909;28;20985;-76
2024/03/03 10:21:37;;;;;;;11.50;9.33;;;;;;;11.68;77.11;154359.28;5038092;28;20456;-74
2024/03/03 10:24:18;;;;;;;13.73;9.20;;;;;;;11.75;77.43;154377.50;5038833;28;20856;-74
2024/03/03 10:26:45;;;;;;;13.27;10.00;;;;;;;11.85;77.01;154402.09;5040874;28;20955;-75
2024/03/03 10:29:12;;;;;;;12.30;9.80;;;;;;;11.86;76.96;154404.72;5052617;28;20462;-75
2024/03/03 10:31:42;;;;;;;12.90;9.33;;;;;;;11.88;76.91;154411.19;5039471;28;20459;-75
2024/03/03 10:34:09;;;;;;;13.33;10.53;;;;;;;11.93;76.77;154422.84;5038813;28;20483;-75
2024/03/03 10:36:37;;;;;;;14.80;9.90;;;;;;;11.97;77.19;154434.50;5040896;28;20577;-74
2024/03/03 10:39:08;;;;;;;14.03;10.83;;;;;;;11.98;77.31;154435.81;5039376;28;20456;-74
2024/03/03 10:41:34;;;;;;;15.03;11.47;;;;;;;11.96;77.32;154431.94;5035745;28;20538;-74
2024/03/03 10:44:02;;;;;;;13.87;10.27;;;;;;;12.04;78.30;154452.69;5028301;28;20520;-76
2024/03/03 10:46:28;;;;;;;14.53;11.07;;;;;;;12.07;77.97;154460.41;5039641;28;20899;-76
2024/03/03 10:48:55;;;;;;;11.47;9.87;;;;;;;12.15;77.40;154481.16;5038588;28;20455;-75
2024/03/03 10:51:25;;;;;;;12.83;10.50;;;;;;;12.17;76.24;154485.06;5036070;28;20535;-76
2024/03/03 10:54:00;;;;;;;12.37;9.17;;;;;;;12.21;74.28;154495.41;5039075;28;20535;-76
2024/03/03 10:56:27;;;;;;;10.90;9.13;;;;;;;12.26;73.71;154508.38;5040553;28;20491;-76
2024/03/03 10:58:55;;;;;;;11.90;9.00;;;;;;;12.30;72.86;154517.47;5035758;28;20887;-76
2024/03/03 11:01:22;;;;;;;12.43;8.23;;;;;;;12.28;72.85;154512.31;5040917;28;20937;-76
2024/03/03 11:03:52;;;;;;;11.60;8.73;;;;;;;12.38;72.87;154539.53;5038966;28;20451;-76
2024/03/03 11:06:19;;;;;;;10.83;7.80;;;;;;;12.50;72.74;154569.31;5038044;28;20458;-76
2024/03/03 11:08:49;;;;;;;10.00;8.20;;;;;;;12.57;71.84;154587.50;5037681;28;21020;-76
2024/03/03 11:11:38;;;;;;;10.37;8.00;;;;;;;12.66;71.14;154612.13;5039479;28;20458;-76
2024/03/03 11:14:11;;;;;;;9.50;7.60;;;;;;;12.76;70.08;154638.06;5040516;28;20485;-76